Time;durP1;ratioP1;P1;durP2;ratioP2;P2;SDS_P1;SDS_P2;PMS_P1;PMS_P2;Temp;Humidity;BMP_temperature;BMP_pressure;BME280_temperature;BME280_humidity;BME280_pressure;Samples;Min_cycle;Max_cycle;Signal;HPM_P1;HPM_P2
2023/05/08 00:00:42;;;;;;;3.20;0.77;;;;;;;20.94;37.72;101728.09;5054428;28;20083;-43
2023/05/08 00:03:08;;;;;;;2.05;0.60;;;;;;;20.94;38.20;101715.31;5054423;28;20033;-45
2023/05/08 00:05:34;;;;;;;2.55;0.70;;;;;;;20.86;36.41;101713.03;5054437;28;20029;-45
2023/05/08 00:08:01;;;;;;;1.10;0.57;;;;;;;20.67;38.05;101709.81;5054585;28;20027;-46
2023/05/08 00:10:28;;;;;;;2.13;0.75;;;;;;;20.77;36.69;101709.13;5053159;28;20057;-44
2023/05/08 00:12:55;;;;;;;3.00;1.35;;;;;;;20.59;37.35;101709.41;5054482;28;20025;-42
2023/05/08 00:15:21;;;;;;;2.92;0.82;;;;;;;20.51;38.71;101707.97;5054284;28;20107;-43
2023/05/08 00:17:48;;;;;;;0.88;0.60;;;;;;;20.40;37.80;101708.84;5054367;28;20052;-43
2023/05/08 00:20:14;;;;;;;0.90;0.55;;;;;;;20.34;39.05;101702.53;5053900;28;20025;-43
2023/05/08 00:22:40;;;;;;;1.67;0.77;;;;;;;20.03;38.59;101698.53;5047180;28;20080;-42
2023/05/08 00:25:07;;;;;;;1.10;0.70;;;;;;;20.07;38.87;101707.00;5034041;28;20656;-43
2023/05/08 00:27:34;;;;;;;2.80;0.73;;;;;;;20.00;38.75;101697.13;5029969;28;20038;-43
2023/05/08 00:30:00;;;;;;;3.45;0.90;;;;;;;20.08;39.28;101698.59;5013965;28;20026;-44
2023/05/08 00:32:26;;;;;;;2.88;1.13;;;;;;;20.04;39.37;101703.72;5015181;28;20510;-43
2023/05/08 00:34:52;;;;;;;2.25;0.90;;;;;;;20.06;39.10;101708.91;5034021;28;20084;-43
2023/05/08 00:37:19;;;;;;;2.42;0.60;;;;;;;19.80;38.87;101707.66;5034038;28;20355;-45
2023/05/08 00:39:45;;;;;;;3.38;0.80;;;;;;;19.56;38.35;101703.44;5033867;28;20112;-43
2023/05/08 00:42:11;;;;;;;2.00;0.90;;;;;;;19.76;38.87;101701.88;5033821;28;20453;-43
2023/05/08 00:44:38;;;;;;;3.47;0.88;;;;;;;19.55;38.98;101712.66;5017366;28;20053;-43
2023/05/08 00:47:06;;;;;;;2.58;0.70;;;;;;;19.06;39.92;101707.66;5013899;28;20063;-42
2023/05/08 00:49:34;;;;;;;3.55;0.90;;;;;;;18.93;40.83;101714.19;5013868;28;20029;-43
2023/05/08 00:52:03;;;;;;;3.55;1.05;;;;;;;18.88;40.73;101718.69;5013933;28;20367;-44
2023/05/08 00:54:30;;;;;;;1.77;0.80;;;;;;;18.94;41.28;101712.31;5025299;28;20427;-43
2023/05/08 00:56:56;;;;;;;2.80;0.75;;;;;;;18.87;41.66;101714.31;5033699;28;20037;-43
2023/05/08 00:59:25;;;;;;;2.10;1.00;;;;;;;18.93;41.87;101711.47;5033369;28;20496;-43
2023/05/08 01:01:52;;;;;;;2.05;0.90;;;;;;;18.91;41.86;101702.75;5033441;28;20098;-43
2023/05/08 01:04:24;;;;;;;4.70;1.63;;;;;;;18.68;42.45;101717.19;5026149;28;20030;-44
2023/05/08 01:06:51;;;;;;;2.95;1.30;;;;;;;18.56;42.17;101705.50;5013861;28;20390;-44
2023/05/08 01:09:17;;;;;;;2.65;0.80;;;;;;;18.50;41.11;101705.63;5013509;28;20120;-46
2023/05/08 01:12:03;;;;;;;4.18;0.90;;;;;;;18.53;41.15;101702.44;5013616;28;20033;-43
2023/05/08 01:14:55;;;;;;;2.95;1.08;;;;;;;18.36;41.66;101710.47;5018336;28;20481;-44
2023/05/08 01:17:35;;;;;;;1.48;0.80;;;;;;;18.45;42.87;101698.22;5020630;28;20088;-44
2023/05/08 01:20:27;;;;;;;2.75;0.85;;;;;;;18.32;41.71;101712.84;5031344;28;20457;-46
2023/05/08 01:23:06;;;;;;;2.60;0.93;;;;;;;18.32;43.01;101704.72;4986219;28;20103;-45
2023/05/08 01:25:53;;;;;;;2.00;1.00;;;;;;;18.13;41.13;101701.28;5022219;28;20120;-43
2023/05/08 01:28:58;;;;;;;5.80;1.10;;;;;;;18.23;41.44;101699.88;5012988;28;20050;-42
2023/05/08 01:31:46;;;;;;;2.13;0.80;;;;;;;17.92;41.43;101696.44;5013283;28;20115;-44
2023/05/08 01:34:23;;;;;;;1.70;0.88;;;;;;;17.86;43.48;101697.38;5017988;28;20038;-42
2023/05/08 01:37:00;;;;;;;1.67;0.77;;;;;;;18.00;42.98;101698.81;5032179;28;20033;-42
2023/05/08 01:39:45;;;;;;;3.95;1.10;;;;;;;17.90;44.34;101687.72;5031616;28;20029;-43
2023/05/08 01:42:14;;;;;;;3.25;1.02;;;;;;;17.94;43.40;101688.91;5032842;28;20520;-44
2023/05/08 01:45:09;;;;;;;4.30;0.93;;;;;;;17.89;43.25;101686.91;5031494;28;20042;-43
2023/05/08 01:47:37;;;;;;;2.90;1.10;;;;;;;17.73;43.87;101686.78;5011041;28;20073;-46
2023/05/08 01:50:20;;;;;;;2.00;1.17;;;;;;;17.83;43.39;101687.84;5019188;28;20120;-45
2023/05/08 01:52:50;;;;;;;2.72;0.90;;;;;;;17.87;42.19;101691.72;5032623;28;20029;-44
2023/05/08 01:55:37;;;;;;;4.47;0.90;;;;;;;17.96;42.62;101686.78;5031619;28;20057;-45
2023/05/08 01:58:09;;;;;;;4.72;1.42;;;;;;;17.96;42.40;101692.22;5012813;28;20030;-44
2023/05/08 02:00:39;;;;;;;3.28;0.80;;;;;;;17.83;43.19;101697.84;5025872;28;20030;-47
2023/05/08 02:03:08;;;;;;;2.85;1.10;;;;;;;17.86;42.83;101690.06;5032675;28;20095;-45
2023/05/08 02:05:37;;;;;;;4.75;1.40;;;;;;;17.85;42.67;101690.31;5028402;28;20040;-44
2023/05/08 02:08:06;;;;;;;5.00;1.15;;;;;;;17.89;42.93;101699.63;5022601;28;20021;-45
2023/05/08 02:10:32;;;;;;;3.20;1.20;;;;;;;17.68;43.46;101699.09;5029627;28;20073;-44
2023/05/08 02:13:01;;;;;;;3.42;1.02;;;;;;;17.77;42.66;101694.19;5029592;28;20025;-44
2023/05/08 02:15:30;;;;;;;1.98;0.80;;;;;;;17.69;42.63;101691.78;5015247;28;20118;-45
2023/05/08 02:17:58;;;;;;;2.65;0.93;;;;;;;17.75;43.01;101681.94;5020514;28;20026;-46
2023/05/08 02:20:27;;;;;;;2.17;0.80;;;;;;;17.52;43.88;101685.38;5012511;28;20022;-45
2023/05/08 02:22:56;;;;;;;2.95;0.95;;;;;;;17.65;42.39;101685.16;5027229;28;20042;-43
2023/05/08 02:25:23;;;;;;;3.50;0.95;;;;;;;17.32;42.48;101691.06;5017424;28;20108;-48
2023/05/08 02:27:52;;;;;;;3.20;1.20;;;;;;;17.36;43.15;101684.16;5020752;28;20022;-45
2023/05/08 02:30:21;;;;;;;5.03;0.98;;;;;;;17.47;43.39;101688.78;5032598;28;20057;-47
2023/05/08 02:32:48;;;;;;;3.00;1.10;;;;;;;17.41;42.77;101690.53;5030140;28;20041;-46
2023/05/08 02:35:18;;;;;;;4.45;0.80;;;;;;;17.23;43.24;101689.78;5016240;28;20104;-44
2023/05/08 02:37:48;;;;;;;5.30;1.20;;;;;;;17.08;43.62;101688.28;5022398;28;20029;-44
2023/05/08 02:40:17;;;;;;;4.05;1.05;;;;;;;17.02;44.32;101686.50;5012587;28;20034;-44
2023/05/08 02:42:45;;;;;;;3.30;0.93;;;;;;;16.93;44.62;101684.34;5012258;28;20092;-45
2023/05/08 02:45:13;;;;;;;3.90;1.40;;;;;;;16.69;44.87;101680.66;5021119;28;20087;-44
2023/05/08 02:47:39;;;;;;;6.28;1.35;;;;;;;16.29;46.02;101675.69;5031173;28;20029;-44
2023/05/08 02:50:18;;;;;;;2.67;0.98;;;;;;;16.15;46.35;101679.56;5026773;28;20025;-45
2023/05/08 02:52:53;;;;;;;2.53;0.70;;;;;;;16.19;47.09;101669.97;5012278;28;20030;-44
2023/05/08 02:55:40;;;;;;;;;;;;;;;15.94;46.87;101667.31;5012865;28;20030;-44
2023/05/08 02:58:35;;;;;;;2.92;1.10;;;;;;;15.66;46.96;101673.16;5012735;28;19913;-45
2023/05/08 03:01:08;;;;;;;3.03;1.13;;;;;;;15.44;48.18;101672.66;5032004;28;20029;-47
2023/05/08 03:03:44;;;;;;;4.50;1.02;;;;;;;15.38;48.21;101678.88;5031531;28;20051;-45
2023/05/08 03:06:18;;;;;;;3.13;0.90;;;;;;;15.07;49.80;101674.31;5031826;28;20066;-44
2023/05/08 03:08:46;;;;;;;3.95;1.63;;;;;;;15.10;50.63;101671.16;5024331;28;20079;-46
2023/05/08 03:11:17;;;;;;;2.53;1.20;;;;;;;15.19;50.45;101673.41;5014556;28;20425;-48
2023/05/08 03:13:47;;;;;;;3.70;0.80;;;;;;;14.87;50.89;101672.53;5031744;28;20104;-46
2023/05/08 03:16:19;;;;;;;1.95;0.90;;;;;;;14.71;51.77;101678.38;5014870;28;20034;-47
2023/05/08 03:19:00;;;;;;;2.22;0.90;;;;;;;14.65;51.95;101690.84;5016527;28;20040;-46
2023/05/08 03:21:29;;;;;;;7.38;1.20;;;;;;;14.58;52.50;101690.03;5011991;28;20026;-45
2023/05/08 03:23:59;;;;;;;4.35;1.60;;;;;;;14.64;51.66;101699.16;5030327;28;20212;-44
2023/05/08 03:26:26;;;;;;;4.55;0.88;;;;;;;14.56;52.08;101702.09;5028393;28;20021;-48
2023/05/08 03:28:55;;;;;;;2.90;1.30;;;;;;;14.62;51.00;101696.66;5024671;28;20375;-44
2023/05/08 03:31:22;;;;;;;4.60;1.17;;;;;;;14.60;52.04;101704.13;5022546;28;20435;-47
2023/05/08 03:33:52;;;;;;;3.42;1.10;;;;;;;14.56;52.14;101704.78;5028645;28;20466;-44
2023/05/08 03:36:20;;;;;;;5.25;1.23;;;;;;;14.44;51.78;101694.63;5038156;28;20022;-44
2023/05/08 03:38:46;;;;;;;3.38;0.95;;;;;;;14.35;52.76;101701.25;5021554;28;20365;-45
2023/05/08 03:41:13;;;;;;;4.45;0.98;;;;;;;14.43;51.48;101703.72;5031604;28;20037;-43
2023/05/08 03:43:40;;;;;;;3.05;0.90;;;;;;;14.25;52.81;101707.06;5030503;28;20026;-45
2023/05/08 03:46:07;;;;;;;3.92;0.90;;;;;;;14.17;52.50;101711.84;5034912;28;20120;-45
2023/05/08 03:48:34;;;;;;;4.00;0.90;;;;;;;14.10;52.65;101697.53;5031466;28;20144;-43
2023/05/08 03:51:02;;;;;;;2.40;1.00;;;;;;;14.02;52.64;101706.66;5028490;28;20059;-43
2023/05/08 03:53:29;;;;;;;3.75;1.10;;;;;;;14.02;53.04;101705.84;5034629;28;20032;-43
2023/05/08 03:56:00;;;;;;;2.05;1.13;;;;;;;14.05;53.09;101698.19;5035001;28;20033;-43
2023/05/08 03:58:49;;;;;;;2.42;0.98;;;;;;;13.97;52.86;101693.00;5034648;28;20065;-43
2023/05/08 04:01:21;;;;;;;3.13;1.00;;;;;;;13.93;53.07;101706.03;5034808;28;20032;-44
2023/05/08 04:04:16;;;;;;;3.30;1.33;;;;;;;13.94;53.71;101704.22;5034945;28;20026;-43
2023/05/08 04:06:57;;;;;;;4.20;1.08;;;;;;;13.81;54.31;101702.31;5034909;28;20381;-44
2023/05/08 04:09:50;;;;;;;4.80;1.08;;;;;;;13.70;55.00;101703.75;5034283;28;20144;-44
2023/05/08 04:12:24;;;;;;;2.70;1.02;;;;;;;13.68;55.03;101705.84;5021654;28;20045;-44
2023/05/08 04:15:00;;;;;;;4.03;1.20;;;;;;;13.61;55.45;101715.75;5034786;28;20022;-43
2023/05/08 04:17:44;;;;;;;5.85;1.05;;;;;;;13.65;55.67;101718.84;5034785;28;20078;-44
2023/05/08 04:20:21;;;;;;;2.25;1.00;;;;;;;13.51;56.67;101719.88;5034336;28;20108;-43
2023/05/08 04:22:50;;;;;;;4.13;0.90;;;;;;;13.37;57.69;101725.22;5032020;28;20083;-43
2023/05/08 04:25:18;;;;;;;2.58;1.00;;;;;;;13.35;58.35;101724.59;5014682;28;20037;-46
2023/05/08 04:27:45;;;;;;;4.22;1.10;;;;;;;13.35;58.35;101727.28;5027959;28;20036;-44
2023/05/08 04:30:12;;;;;;;3.60;1.50;;;;;;;13.38;58.65;101726.91;5034144;28;20026;-44
2023/05/08 04:32:39;;;;;;;4.50;1.98;;;;;;;13.32;59.70;101722.28;5034394;28;20041;-43
2023/05/08 04:35:05;;;;;;;5.28;1.90;;;;;;;13.35;60.42;101727.28;5034308;28;20029;-45
2023/05/08 04:37:32;;;;;;;2.38;1.40;;;;;;;13.27;61.32;101723.94;5034298;28;20470;-44
2023/05/08 04:39:59;;;;;;;1.73;0.93;;;;;;;13.35;61.35;101721.09;5036983;28;20048;-45
2023/05/08 04:42:26;;;;;;;6.90;1.42;;;;;;;13.26;62.02;101727.66;5026789;28;20432;-45
2023/05/08 04:44:53;;;;;;;5.72;1.30;;;;;;;13.18;62.20;101728.66;5034332;28;20061;-47
2023/05/08 04:47:20;;;;;;;3.78;1.50;;;;;;;13.08;63.34;101718.28;5019971;28;20026;-44
2023/05/08 04:49:46;;;;;;;5.63;1.13;;;;;;;13.13;63.43;101723.03;5052876;28;20528;-44
2023/05/08 04:52:12;;;;;;;4.35;1.30;;;;;;;13.25;62.75;101721.47;5034023;28;20029;-43
2023/05/08 04:54:39;;;;;;;4.53;1.00;;;;;;;13.13;63.25;101728.41;5033876;28;20147;-44
2023/05/08 04:57:06;;;;;;;2.67;1.02;;;;;;;13.02;63.85;101729.00;5033493;28;20377;-43
2023/05/08 04:59:32;;;;;;;6.10;1.42;;;;;;;12.98;64.62;101725.03;5033421;28;20022;-43
2023/05/08 05:02:01;;;;;;;4.40;1.20;;;;;;;12.92;64.50;101722.13;5033496;28;20021;-48
2023/05/08 05:04:28;;;;;;;6.63;2.30;;;;;;;13.00;64.32;101718.47;5033569;28;20064;-44
2023/05/08 05:06:54;;;;;;;4.75;1.30;;;;;;;12.86;64.98;101722.09;5033513;28;20038;-46
2023/05/08 05:09:20;;;;;;;4.57;3.00;;;;;;;12.91;64.69;101725.84;5031270;28;20061;-45
2023/05/08 05:11:47;;;;;;;3.45;1.25;;;;;;;12.81;65.07;101725.38;5033574;28;20143;-47
2023/05/08 05:14:13;;;;;;;4.70;1.10;;;;;;;12.88;64.49;101723.56;5037775;28;20032;-45
2023/05/08 05:16:39;;;;;;;4.43;0.98;;;;;;;12.80;65.07;101718.34;5017097;28;20454;-43
2023/05/08 05:19:05;;;;;;;2.83;1.00;;;;;;;12.86;64.79;101712.19;5042578;28;20100;-44
2023/05/08 05:21:32;;;;;;;4.28;1.10;;;;;;;12.83;64.98;101717.97;5029836;28;20025;-41
2023/05/08 05:23:58;;;;;;;4.00;0.88;;;;;;;12.69;65.41;101716.22;5031684;28;20086;-43
2023/05/08 05:26:24;;;;;;;4.55;1.17;;;;;;;12.85;64.92;101723.13;5031491;28;20128;-42
2023/05/08 05:28:50;;;;;;;2.30;1.02;;;;;;;12.81;65.18;101714.63;5033568;28;20037;-44
2023/05/08 05:31:17;;;;;;;3.03;1.40;;;;;;;12.84;64.97;101716.94;5033324;28;20041;-43
2023/05/08 05:33:43;;;;;;;3.25;1.00;;;;;;;12.78;65.48;101717.72;5022151;28;20191;-42
2023/05/08 05:36:09;;;;;;;2.65;1.30;;;;;;;12.76;65.42;101717.09;5031733;28;20037;-45
2023/05/08 05:38:35;;;;;;;4.55;1.13;;;;;;;12.76;65.07;101717.09;5031153;28;20053;-43
2023/05/08 05:41:02;;;;;;;3.97;1.35;;;;;;;12.87;64.73;101719.19;5031894;28;20021;-46
2023/05/08 05:43:28;;;;;;;5.82;1.20;;;;;;;12.81;64.85;101719.19;5031029;28;20017;-45
2023/05/08 05:45:57;;;;;;;2.90;1.23;;;;;;;12.80;65.40;101718.34;5019897;28;20103;-45
2023/05/08 05:48:23;;;;;;;5.65;1.42;;;;;;;12.83;64.90;101715.28;5013324;28;20475;-43
2023/05/08 05:50:50;;;;;;;3.03;1.13;;;;;;;12.83;64.90;101717.97;5032920;28;20065;-46
2023/05/08 05:53:16;;;;;;;4.20;1.13;;;;;;;12.78;65.04;101715.03;5032786;28;20036;-44
2023/05/08 05:55:42;;;;;;;6.85;1.25;;;;;;;12.67;65.52;101713.75;5033113;28;20037;-45
2023/05/08 05:58:08;;;;;;;4.45;0.93;;;;;;;12.92;64.12;101707.88;5032520;28;20036;-44
2023/05/08 06:00:34;;;;;;;5.15;1.33;;;;;;;12.86;64.48;101709.50;5032557;28;20038;-44
2023/05/08 06:03:01;;;;;;;4.88;1.35;;;;;;;12.75;65.23;101709.22;5032778;28;20028;-43
2023/05/08 06:05:27;;;;;;;4.55;1.30;;;;;;;12.72;65.54;101710.47;5032461;28;20033;-44
2023/05/08 06:07:54;;;;;;;3.15;1.08;;;;;;;12.83;64.95;101707.22;5031795;28;20033;-44
2023/05/08 06:10:20;;;;;;;3.38;0.90;;;;;;;12.67;65.62;101712.91;5032086;28;20473;-47
2023/05/08 06:12:46;;;;;;;6.72;1.20;;;;;;;12.58;65.87;101709.56;5032675;28;20029;-45
2023/05/08 06:15:13;;;;;;;4.05;1.00;;;;;;;12.68;65.67;101706.53;5032500;28;20029;-44
2023/05/08 06:17:40;;;;;;;6.32;1.42;;;;;;;12.62;65.66;101699.25;5032309;28;20026;-45
2023/05/08 06:20:07;;;;;;;4.18;1.23;;;;;;;12.69;65.23;101702.81;5032095;28;20025;-44
2023/05/08 06:22:36;;;;;;;2.35;1.10;;;;;;;12.61;65.08;101695.75;5032395;28;20512;-43
2023/05/08 06:25:02;;;;;;;5.93;1.40;;;;;;;12.51;65.98;101697.97;5032192;28;20038;-44
2023/05/08 06:27:29;;;;;;;4.65;1.38;;;;;;;12.79;64.72;101700.59;5032108;28;20025;-43
2023/05/08 06:29:55;;;;;;;3.58;0.90;;;;;;;12.63;65.38;101691.00;5031895;28;20022;-43
2023/05/08 06:32:21;;;;;;;5.60;1.70;;;;;;;12.49;65.88;101691.94;5032173;28;20064;-44
2023/05/08 06:34:47;;;;;;;5.25;0.93;;;;;;;12.55;64.91;101695.72;5032240;28;20510;-43
2023/05/08 06:37:14;;;;;;;4.65;1.30;;;;;;;12.65;65.35;101690.78;5032140;28;20029;-43
2023/05/08 06:39:40;;;;;;;3.50;1.20;;;;;;;12.54;65.69;101697.53;5031895;28;20100;-43
2023/05/08 06:42:07;;;;;;;4.90;1.15;;;;;;;12.47;65.96;101685.94;5031917;28;20036;-43
2023/05/08 06:44:33;;;;;;;6.75;1.25;;;;;;;12.48;65.83;101695.66;5031981;28;20025;-44
2023/05/08 06:46:59;;;;;;;3.92;1.08;;;;;;;12.45;65.97;101695.22;5032146;28;20032;-43
2023/05/08 06:49:25;;;;;;;3.00;1.00;;;;;;;12.34;66.62;101701.97;5031801;28;20367;-43
2023/05/08 06:51:52;;;;;;;4.55;1.10;;;;;;;12.29;66.96;101705.25;5031268;28;20034;-45
2023/05/08 06:54:18;;;;;;;3.28;1.17;;;;;;;12.31;66.54;101713.94;5029976;28;20064;-43
2023/05/08 06:56:45;;;;;;;2.28;0.90;;;;;;;12.32;66.29;101704.84;5030829;28;20109;-43
2023/05/08 06:59:11;;;;;;;4.97;1.05;;;;;;;12.38;66.36;101701.41;5030608;28;20025;-44
2023/05/08 07:01:37;;;;;;;3.50;1.35;;;;;;;12.39;66.58;101705.75;5030911;28;20126;-43
2023/05/08 07:04:04;;;;;;;5.03;1.10;;;;;;;12.39;66.89;101699.53;5030074;28;20021;-43
2023/05/08 07:06:30;;;;;;;3.25;1.13;;;;;;;12.33;66.92;101705.69;5020352;28;20030;-43
2023/05/08 07:08:57;;;;;;;1.98;1.00;;;;;;;12.23;67.24;101700.66;5011923;28;20029;-43
2023/05/08 07:11:23;;;;;;;2.90;1.10;;;;;;;12.24;67.46;101702.31;5018410;28;20049;-43
2023/05/08 07:13:50;;;;;;;2.20;1.10;;;;;;;12.40;66.88;101704.72;5052191;28;20495;-43
2023/05/08 07:16:16;;;;;;;2.83;1.20;;;;;;;12.36;66.93;101711.47;5041574;28;20030;-43
2023/05/08 07:18:43;;;;;;;3.67;1.10;;;;;;;12.38;67.53;101706.78;5056088;23;20079;-44
2023/05/08 07:21:10;;;;;;;2.55;0.90;;;;;;;12.32;68.08;101704.84;5055273;28;20040;-43
2023/05/08 07:23:36;;;;;;;5.32;1.42;;;;;;;12.27;67.98;101706.47;5055543;28;20485;-45
2023/05/08 07:26:02;;;;;;;4.50;1.38;;;;;;;12.36;67.51;101706.13;5055750;28;20041;-45
2023/05/08 07:28:28;;;;;;;5.00;1.17;;;;;;;12.25;68.25;101703.16;5047299;28;20485;-45
2023/05/08 07:30:56;;;;;;;3.05;1.10;;;;;;;12.30;67.81;101709.59;5075404;28;20062;-43
2023/05/08 07:33:22;;;;;;;3.58;1.10;;;;;;;12.28;67.87;101711.66;5072807;28;20024;-42
2023/05/08 07:35:48;;;;;;;2.05;1.13;;;;;;;12.14;68.54;101717.94;5055149;28;20114;-43
2023/05/08 07:38:14;;;;;;;4.63;1.73;;;;;;;12.08;69.04;101713.34;5055004;28;20031;-42
2023/05/08 07:40:41;;;;;;;4.95;1.65;;;;;;;12.21;68.29;101712.59;5055135;28;20025;-42
2023/05/08 07:43:07;;;;;;;7.47;1.20;;;;;;;12.17;68.91;101704.13;5055038;28;20032;-42
2023/05/08 07:45:34;;;;;;;5.15;1.45;;;;;;;12.11;69.37;101704.91;5054938;28;20029;-42
2023/05/08 07:48:00;;;;;;;4.30;1.15;;;;;;;12.17;68.76;101700.63;5054841;28;20484;-44
2023/05/08 07:50:27;;;;;;;5.45;1.50;;;;;;;12.12;69.31;101693.97;5054833;28;20021;-46
2023/05/08 07:52:53;;;;;;;4.93;1.10;;;;;;;12.02;70.07;101706.06;5054920;28;20116;-42
2023/05/08 07:55:20;;;;;;;3.72;1.27;;;;;;;12.00;70.37;101697.41;5054999;28;20021;-42
2023/05/08 07:57:46;;;;;;;5.03;1.75;;;;;;;11.86;71.30;101694.59;5054990;28;20024;-44
2023/05/08 08:00:14;;;;;;;3.97;1.50;;;;;;;11.92;71.04;101692.16;5054410;28;20021;-43
2023/05/08 08:02:41;;;;;;;3.58;1.98;;;;;;;11.84;71.73;101696.66;5054938;28;20025;-42
2023/05/08 08:05:08;;;;;;;4.65;1.55;;;;;;;11.85;71.16;101690.25;5055392;28;20035;-42
2023/05/08 08:07:34;;;;;;;3.55;1.38;;;;;;;11.77;72.02;101693.06;5053588;28;20036;-42
2023/05/08 08:10:03;;;;;;;5.72;1.40;;;;;;;11.70;72.13;101689.47;5053108;28;20028;-42
2023/05/08 08:12:30;;;;;;;3.22;1.33;;;;;;;11.74;71.97;101693.44;5054391;28;20037;-41
2023/05/08 08:14:57;;;;;;;4.82;1.48;;;;;;;11.67;72.14;101697.91;5048854;28;20034;-43
2023/05/08 08:17:23;;;;;;;3.67;1.83;;;;;;;11.66;72.19;101692.72;5052779;28;20041;-43
2023/05/08 08:19:49;;;;;;;4.93;2.38;;;;;;;11.84;71.43;101680.56;5052959;28;20025;-43
2023/05/08 08:22:16;;;;;;;8.45;2.42;;;;;;;11.76;71.37;101683.31;5059945;28;20036;-42
2023/05/08 08:24:42;;;;;;;6.60;2.47;;;;;;;11.88;71.00;101680.97;5054185;28;20075;-43
2023/05/08 08:27:08;;;;;;;5.18;1.92;;;;;;;11.76;71.14;101683.31;5054365;28;20021;-44
2023/05/08 08:29:35;;;;;;;5.85;2.00;;;;;;;11.76;71.17;101686.00;5053823;28;20029;-42
2023/05/08 08:32:02;;;;;;;3.65;1.42;;;;;;;11.75;71.33;101691.56;5053173;28;20028;-43
2023/05/08 08:34:28;;;;;;;10.57;2.20;;;;;;;11.70;71.98;101681.41;5072687;28;20064;-42
2023/05/08 08:36:54;;;;;;;5.68;1.85;;;;;;;11.68;71.86;101670.06;5074078;28;20032;-43
2023/05/08 08:39:21;;;;;;;3.88;1.65;;;;;;;11.78;71.65;101673.25;5072069;28;20024;-42
2023/05/08 08:41:47;;;;;;;5.00;1.88;;;;;;;11.86;71.47;101673.13;5053718;28;20424;-42
2023/05/08 08:44:14;;;;;;;7.35;1.23;;;;;;;11.84;71.02;101675.19;5053877;28;20522;-45
2023/05/08 08:46:49;;;;;;;4.90;1.48;;;;;;;11.86;71.12;101664.25;5053894;28;20025;-42
2023/05/08 08:49:17;;;;;;;;;;;;;;;11.85;71.40;101670.66;5054124;28;20497;-42
2023/05/08 08:51:51;;;;;;;4.50;1.83;;;;;;;11.81;71.61;101664.84;5054141;28;19966;-42
2023/05/08 08:54:22;;;;;;;6.38;1.40;;;;;;;11.77;72.28;101660.88;5053848;28;20017;-42
2023/05/08 08:56:50;;;;;;;4.55;1.50;;;;;;;11.76;72.33;101656.50;5053750;28;20032;-43
2023/05/08 08:59:17;;;;;;;5.40;1.42;;;;;;;11.76;72.29;101663.72;5052965;28;20074;-45
2023/05/08 09:01:50;;;;;;;5.90;1.67;;;;;;;11.79;71.50;101660.66;5053682;28;20050;-45
2023/05/08 09:04:17;;;;;;;3.58;1.33;;;;;;;11.74;72.01;101653.19;5053475;28;20136;-45
2023/05/08 09:06:44;;;;;;;2.95;1.25;;;;;;;11.69;72.31;101638.72;5053819;28;20029;-44
2023/05/08 09:09:12;;;;;;;3.67;1.30;;;;;;;11.74;72.98;101641.66;5056614;28;20122;-46
2023/05/08 09:11:40;;;;;;;4.03;1.70;;;;;;;11.68;72.87;101634.38;5073518;28;20154;-44
2023/05/08 09:14:07;;;;;;;7.43;1.58;;;;;;;11.73;73.78;101627.41;5073442;28;20118;-42
2023/05/08 09:16:33;;;;;;;6.13;1.60;;;;;;;11.64;74.40;101628.56;5061098;28;20082;-42
2023/05/08 09:19:01;;;;;;;6.20;1.50;;;;;;;11.61;74.34;101624.44;5053036;28;20114;-43
2023/05/08 09:21:28;;;;;;;7.28;1.30;;;;;;;11.58;74.55;101624.81;5051887;28;20029;-42
2023/05/08 09:24:02;;;;;;;3.05;1.23;;;;;;;11.71;73.75;101632.13;5045573;28;20052;-43
2023/05/08 09:26:39;;;;;;;4.57;1.38;;;;;;;11.60;73.92;101625.47;5052098;28;20032;-43
2023/05/08 09:29:11;;;;;;;4.82;1.08;;;;;;;11.73;72.14;101627.41;5050506;28;20029;-42
2023/05/08 09:31:40;;;;;;;7.97;1.92;;;;;;;11.64;73.96;101621.34;5051017;28;20028;-44
2023/05/08 09:34:11;;;;;;;4.38;1.52;;;;;;;11.64;74.55;101615.16;5051245;28;20028;-42
2023/05/08 09:36:40;;;;;;;6.13;1.60;;;;;;;11.61;75.25;101616.38;5051729;28;20071;-45
2023/05/08 09:39:11;;;;;;;3.78;1.40;;;;;;;11.65;75.12;101616.81;5050251;28;20027;-42
2023/05/08 09:41:37;;;;;;;6.38;1.70;;;;;;;11.79;74.08;101612.41;5046053;28;20457;-41
2023/05/08 09:44:06;;;;;;;3.13;1.38;;;;;;;11.68;75.52;101619.13;5051972;28;20028;-44
2023/05/08 09:46:33;;;;;;;4.50;1.55;;;;;;;11.51;76.48;101610.53;5051667;28;20491;-42
2023/05/08 09:49:01;;;;;;;7.72;1.60;;;;;;;11.69;75.08;101611.91;5050519;28;20027;-43
2023/05/08 09:51:30;;;;;;;4.72;1.38;;;;;;;11.65;75.85;101614.13;5050842;28;20024;-42
2023/05/08 09:53:58;;;;;;;3.45;1.40;;;;;;;11.71;75.40;101624.06;5051594;28;20450;-42
2023/05/08 09:56:33;;;;;;;5.13;1.33;;;;;;;11.71;75.26;101621.38;5051501;28;20496;-43
2023/05/08 09:59:01;;;;;;;8.32;1.70;;;;;;;11.82;74.11;101618.22;5050352;28;20039;-43
2023/05/08 10:01:33;;;;;;;6.07;1.33;;;;;;;11.90;73.89;101609.19;5050355;28;20021;-42
2023/05/08 10:04:00;;;;;;;5.97;1.50;;;;;;;11.80;74.43;101611.34;5049465;28;20080;-43
2023/05/08 10:06:30;;;;;;;5.53;1.25;;;;;;;11.94;73.87;101615.84;5050833;28;20481;-45
2023/05/08 10:09:10;;;;;;;4.55;1.20;;;;;;;11.94;73.50;101612.31;5052372;28;20037;-43
2023/05/08 10:11:38;;;;;;;2.92;1.20;;;;;;;11.91;74.53;101615.38;5072452;28;20032;-42
2023/05/08 10:14:05;;;;;;;4.97;1.30;;;;;;;11.99;74.08;101613.38;5056741;28;20036;-42
2023/05/08 10:16:40;;;;;;;6.55;1.58;;;;;;;12.01;73.11;101619.38;5048504;28;20024;-43
2023/05/08 10:19:11;;;;;;;;;;;;;;;12.06;72.88;101616.13;5050581;28;20151;-42
2023/05/08 10:21:41;;;;;;;4.78;1.63;;;;;;;12.08;73.09;101611.38;5032599;28;20003;-42
2023/05/08 10:24:20;;;;;;;5.43;1.60;;;;;;;12.07;73.45;101615.09;5045723;28;20021;-42
2023/05/08 10:27:01;;;;;;;3.60;1.40;;;;;;;12.19;72.71;101613.50;5047872;28;20128;-42
2023/05/08 10:29:40;;;;;;;7.20;1.58;;;;;;;12.24;73.21;101620.97;5049878;28;20025;-43
2023/05/08 10:32:09;;;;;;;4.30;1.65;;;;;;;12.14;73.72;101611.41;5050570;28;20033;-43
2023/05/08 10:34:40;;;;;;;3.40;1.38;;;;;;;12.08;74.33;101612.19;5040524;28;20040;-43
2023/05/08 10:37:10;;;;;;;10.07;1.80;;;;;;;12.22;73.77;101602.38;5051925;28;20099;-42
2023/05/08 10:39:37;;;;;;;2.22;1.40;;;;;;;12.14;73.72;101608.72;5051663;28;20035;-42
2023/05/08 10:42:04;;;;;;;3.50;1.10;;;;;;;12.26;73.18;101606.31;5049350;28;20021;-43
2023/05/08 10:44:31;;;;;;;2.90;1.25;;;;;;;12.20;73.29;101614.34;5051797;28;20512;-45
2023/05/08 10:47:03;;;;;;;4.65;1.35;;;;;;;12.10;73.73;101612.84;5051864;28;20410;-42
2023/05/08 10:49:43;;;;;;;4.00;1.40;;;;;;;12.17;73.52;101615.56;5051608;28;20029;-43
2023/05/08 10:52:29;;;;;;;7.32;1.30;;;;;;;12.07;74.06;101615.91;5051795;28;20031;-43
2023/05/08 10:55:01;;;;;;;4.53;1.25;;;;;;;12.22;73.35;101613.13;5053664;28;20028;-42
2023/05/08 10:57:27;;;;;;;5.70;1.40;;;;;;;12.04;74.04;101605.56;5055807;28;20121;-41
2023/05/08 10:59:53;;;;;;;5.47;1.35;;;;;;;12.14;73.62;101606.03;5055611;28;20052;-43
2023/05/08 11:02:31;;;;;;;7.18;1.77;;;;;;;12.13;73.87;101606.25;5055754;28;20478;-42
2023/05/08 11:05:19;;;;;;;6.75;1.48;;;;;;;12.12;73.73;101615.34;5055812;28;20481;-42
2023/05/08 11:08:13;;;;;;;5.45;1.50;;;;;;;12.12;73.60;101618.84;5055432;28;20040;-43
2023/05/08 11:10:40;;;;;;;4.82;1.40;;;;;;;12.11;73.60;101614.50;5071397;28;20029;-42
2023/05/08 11:13:08;;;;;;;5.38;1.33;;;;;;;12.21;72.97;101606.06;5075613;28;20021;-44
2023/05/08 11:15:36;;;;;;;4.82;1.50;;;;;;;12.01;73.40;101608.66;5063175;28;20021;-42
2023/05/08 11:18:10;;;;;;;6.28;1.45;;;;;;;12.08;73.01;101597.97;5055273;28;20063;-42
2023/05/08 11:21:02;;;;;;;4.10;1.60;;;;;;;12.04;72.98;101599.38;5055334;28;20051;-42
2023/05/08 11:23:33;;;;;;;3.78;1.40;;;;;;;11.95;72.56;101592.53;5055574;28;20031;-43
2023/05/08 11:26:02;;;;;;;2.63;1.02;;;;;;;12.07;72.05;101594.44;5055244;28;20052;-43
2023/05/08 11:28:56;;;;;;;5.15;1.35;;;;;;;12.06;71.53;101590.13;5055279;28;20033;-42
2023/05/08 11:31:23;;;;;;;6.20;1.20;;;;;;;12.19;70.63;101589.34;5055430;28;20049;-42
2023/05/08 11:33:49;;;;;;;2.95;1.17;;;;;;;12.05;70.23;101582.28;5055279;28;20476;-43
2023/05/08 11:36:19;;;;;;;4.88;1.58;;;;;;;12.16;69.59;101589.75;5052618;28;20049;-42
2023/05/08 11:39:14;;;;;;;5.55;1.65;;;;;;;12.05;70.55;101590.31;5053521;28;20037;-41